Time;durP1;ratioP1;P1;durP2;ratioP2;P2;SDS_P1;SDS_P2;PMS_P1;PMS_P2;Temp;Humidity;BMP_temperature;BMP_pressure;BME280_temperature;BME280_humidity;BME280_pressure;Samples;Min_cycle;Max_cycle;Signal;HPM_P1;HPM_P2
2022/02/09 00:00:05;;;;;;;5.10;3.10;;;;;;;21.40;27.98;101452.20;104531;1307;62058;-85
2022/02/09 00:03:16;;;;;;;5.70;3.10;;;;;;;21.40;27.88;101456.33;104620;1307;62004;-87
2022/02/09 00:06:14;;;;;;;6.00;3.10;;;;;;;21.40;28.04;101446.66;104482;1309;72742;-83
2022/02/09 00:09:01;;;;;;;5.30;3.00;;;;;;;21.40;28.09;101446.68;104448;1310;76707;-88
2022/02/09 00:12:05;;;;;;;5.50;2.90;;;;;;;21.40;28.03;101440.80;104464;1308;62065;-84
2022/02/09 00:15:10;;;;;;;;;;;;;;;;;;;;;
2022/02/09 00:21:27;;;;;;;6.80;3.30;;;;;;;21.40;27.95;101444.89;104254;1310;75393;-89
2022/02/09 00:28:21;;;;;;;5.80;3.30;;;;;;;21.40;27.94;101452.06;104168;1313;62094;-82
2022/02/09 01:41:43;;;;;;;4.70;2.80;;;;;;;21.39;27.86;101430.30;102498;1332;75600;-86
2022/02/09 01:57:04;;;;;;;4.90;2.90;;;;;;;21.39;27.86;101432.45;101890;1341;62057;-85
2022/02/09 02:00:15;;;;;;;5.80;2.90;;;;;;;21.39;27.83;101420.42;101880;1341;62128;-88
2022/02/09 02:03:04;;;;;;;5.50;2.90;;;;;;;21.40;27.95;101429.16;101835;1340;72786;-85
2022/02/09 02:06:19;;;;;;;4.60;2.60;;;;;;;21.39;27.87;101428.45;101683;1344;77683;-80
2022/02/09 02:09:16;;;;;;;5.50;3.10;;;;;;;21.40;27.82;101427.71;101866;1340;62037;-86
2022/02/09 02:12:48;;;;;;;4.90;3.00;;;;;;;21.40;27.80;101423.73;101864;1340;62269;-84
2022/02/09 02:15:51;;;;;;;5.40;3.30;;;;;;;21.40;27.85;101428.02;101946;1338;72992;-86
2022/02/09 02:18:14;;;;;;;;;;;;;;;21.40;27.83;101422.52;102251;1331;75694;-86
2022/02/09 02:28:18;;;;;;;6.40;2.90;;;;;;;21.39;27.84;101422.77;102709;1327;73797;-88
2022/02/09 02:31:46;;;;;;;5.70;2.80;;;;;;;21.39;27.83;101426.88;102761;1328;76827;-82
2022/02/09 02:34:52;;;;;;;5.00;2.90;;;;;;;21.39;27.81;101428.13;103267;1319;62202;-86
2022/02/09 02:47:44;;;;;;;6.00;3.10;;;;;;;21.39;27.85;101446.35;102701;1325;62011;-85
2022/02/09 02:57:22;;;;;;;5.00;3.10;;;;;;;21.39;27.88;101442.05;102754;1326;74430;-83
2022/02/09 03:10:58;;;;;;;5.10;3.10;;;;;;;21.38;27.85;101447.86;102630;1328;76832;-84
2022/02/09 03:14:13;;;;;;;;;;;;;;;;;;;;;
2022/02/09 03:16:56;;;;;;;6.70;3.40;;;;;;;21.38;27.88;101447.86;102320;1335;62210;-87
2022/02/09 03:20:01;;;;;;;6.20;3.50;;;;;;;21.39;27.90;101456.96;102099;1334;72981;-86
2022/02/09 03:26:31;;;;;;;5.60;3.00;;;;;;;21.39;27.90;101446.21;102527;1331;62322;-84
2022/02/09 03:45:52;;;;;;;5.20;3.00;;;;;;;21.38;27.88;101450.23;101826;1340;72703;-91
2022/02/09 03:57:31;;;;;;;5.50;3.00;;;;;;;21.38;27.94;101443.23;101903;1334;73857;-82
2022/02/09 04:00:33;;;;;;;4.60;2.90;;;;;;;21.38;27.94;101441.25;102441;1332;75685;-84
2022/02/09 04:03:28;;;;;;;6.20;3.10;;;;;;;21.38;27.91;101443.95;102116;1335;62053;-87
2022/02/09 04:06:36;;;;;;;5.50;3.00;;;;;;;21.38;27.93;101447.52;102078;1335;62257;-83
2022/02/09 04:09:23;;;;;;;5.80;3.80;;;;;;;21.38;27.95;101447.17;101867;1341;73272;-83
2022/02/09 04:12:30;;;;;;;6.40;3.50;;;;;;;21.38;27.96;101453.98;101774;1340;75633;-83
2022/02/09 04:18:14;;;;;;;5.90;3.60;;;;;;;21.38;27.97;101456.30;101997;1337;62005;-83
2022/02/09 04:37:28;;;;;;;;;;;;;;;;;;;;;
2022/02/09 04:43:43;;;;;;;6.00;3.70;;;;;;;21.38;28.00;101482.61;101845;1337;61932;-87
2022/02/09 04:46:50;;;;;;;7.00;3.80;;;;;;;21.38;27.99;101480.31;102164;1334;73060;-87
2022/02/09 04:59:42;;;;;;;6.80;3.40;;;;;;;21.38;27.96;101491.38;102231;1334;74090;-79
2022/02/09 05:22:50;;;;;;;6.40;3.20;;;;;;;21.37;27.91;101532.80;103552;1319;60410;-84
2022/02/09 05:26:09;;;;;;;8.40;3.30;;;;;;;21.38;27.84;101535.64;104133;1313;74012;-82
2022/02/09 05:28:58;;;;;;;9.00;3.70;;;;;;;21.37;27.83;101536.59;104188;1313;76933;-84
2022/02/09 05:32:07;;;;;;;7.90;3.50;;;;;;;21.37;27.80;101539.05;103838;1316;62220;-88
2022/02/09 05:34:57;;;;;;;;;;;;;;;;;;;;;
2022/02/09 05:37:57;;;;;;;9.70;3.50;;;;;;;21.37;27.73;101538.20;103399;1319;73772;-85
2022/02/09 05:40:44;;;;;;;6.40;3.50;;;;;;;21.37;27.73;101541.26;102677;1323;75694;-84
2022/02/09 05:43:45;;;;;;;8.00;3.50;;;;;;;21.36;27.65;101544.69;102936;1324;62348;-87
2022/02/09 05:50:19;;;;;;;7.50;3.70;;;;;;;21.35;27.69;101558.71;102895;1323;71628;-87
2022/02/09 05:53:19;;;;;;;7.60;3.70;;;;;;;21.35;27.44;101560.86;102985;1322;76063;-84
2022/02/09 05:55:54;;;;;;;9.40;3.50;;;;;;;21.35;27.32;101564.10;102717;1322;65442;-83
2022/02/09 06:01:14;;;;;;;10.20;4.20;;;;;;;21.35;27.17;101571.05;102658;1323;74460;-85
2022/02/09 06:03:42;;;;;;;10.80;3.80;;;;;;;21.36;27.05;101572.25;102428;1323;75125;-82
2022/02/09 06:06:19;;;;;;;10.40;4.40;;;;;;;21.36;26.98;101569.58;102640;1323;63109;-82
2022/02/09 06:08:46;;;;;;;12.90;4.40;;;;;;;21.37;26.91;101571.88;102678;1323;62196;-82
2022/02/09 06:19:48;;;;;;;13.40;4.50;;;;;;;21.39;26.53;101573.48;102807;1319;62443;-81
2022/02/09 06:22:22;;;;;;;10.30;4.00;;;;;;;21.39;26.51;101576.00;102926;1320;72849;-81
2022/02/09 06:24:48;;;;;;;9.60;4.10;;;;;;;21.41;26.45;101574.13;102994;1322;76568;-81
2022/02/09 06:27:20;;;;;;;10.80;4.00;;;;;;;21.41;26.46;101581.81;102706;1322;62328;-82
2022/02/09 06:29:47;;;;;;;12.30;4.20;;;;;;;21.42;26.39;101574.40;102998;1319;62251;-83
2022/02/09 06:32:38;;;;;;;10.20;3.90;;;;;;;21.44;26.34;101574.84;102980;1322;72924;-84
2022/02/09 06:35:22;;;;;;;8.80;4.10;;;;;;;21.44;26.38;101572.70;103045;1319;75763;-81
2022/02/09 06:37:50;;;;;;;9.80;4.50;;;;;;;21.45;26.48;101577.30;103128;1322;61937;-82
2022/02/09 06:40:42;;;;;;;8.80;4.50;;;;;;;21.45;26.43;101572.08;102935;1322;62019;-81
2022/02/09 06:43:08;;;;;;;8.40;4.50;;;;;;;21.46;26.31;101573.32;103088;1317;72839;-82
2022/02/09 06:45:37;;;;;;;9.50;4.40;;;;;;;21.46;26.43;101573.64;102798;1322;62148;-82
2022/02/09 06:48:23;;;;;;;12.80;4.40;;;;;;;21.46;26.31;101568.61;103284;1319;63418;-82
2022/02/09 06:50:54;;;;;;;12.20;4.80;;;;;;;21.46;26.50;101563.27;103571;1314;62116;-81
2022/02/09 06:56:06;;;;;;;13.80;5.80;;;;;;;21.46;26.28;101579.77;103928;1307;76813;-82
2022/02/09 06:58:57;;;;;;;11.60;5.50;;;;;;;21.45;26.20;101573.89;104317;1306;62108;-81
2022/02/09 07:01:23;;;;;;;13.40;5.80;;;;;;;21.44;26.23;101574.51;104386;1307;63543;-83
2022/02/09 07:03:51;;;;;;;12.70;5.20;;;;;;;21.44;26.26;101578.41;104087;1308;62206;-82
2022/02/09 07:06:32;;;;;;;9.10;5.10;;;;;;;21.44;26.11;101580.20;104194;1308;77245;-82
2022/02/09 07:09:10;;;;;;;11.00;5.30;;;;;;;21.44;26.07;101585.76;104311;1306;62140;-82
2022/02/09 07:11:45;;;;;;;11.90;5.20;;;;;;;21.44;25.98;101599.92;104205;1306;61965;-81
2022/02/09 07:14:11;;;;;;;10.60;5.20;;;;;;;21.44;25.97;101603.65;104229;1307;72816;-81
2022/02/09 07:16:38;;;;;;;11.30;5.70;;;;;;;21.44;26.11;101599.54;104160;1308;62272;-82
2022/02/09 07:19:07;;;;;;;9.20;5.00;;;;;;;21.45;25.96;101603.41;104100;1308;62240;-81
2022/02/09 07:21:36;;;;;;;13.80;5.10;;;;;;;21.45;25.96;101606.64;104115;1308;62140;-81
2022/02/09 07:24:03;;;;;;;12.30;5.50;;;;;;;21.45;25.96;101604.34;104140;1308;73842;-82
2022/02/09 07:29:13;;;;;;;9.90;5.70;;;;;;;21.46;26.03;101609.85;104117;1308;62118;-82
2022/02/09 07:31:59;;;;;;;10.10;5.10;;;;;;;21.46;26.05;101616.64;104224;1307;62049;-82
2022/02/09 07:34:33;;;;;;;10.20;5.20;;;;;;;21.46;26.07;101621.84;103963;1310;72857;-82
2022/02/09 07:37:04;;;;;;;11.90;4.90;;;;;;;21.46;26.15;101621.66;104030;1308;76620;-82
2022/02/09 07:39:31;;;;;;;10.00;4.70;;;;;;;21.46;26.07;101621.29;103836;1307;62074;-82
2022/02/09 07:41:57;;;;;;;10.00;4.90;;;;;;;21.46;25.93;101622.00;103649;1308;62006;-81
2022/02/09 07:44:57;;;;;;;9.00;4.70;;;;;;;21.46;26.07;101622.73;104046;1308;62120;-82
2022/02/09 07:51:01;;;;;;;9.80;5.10;;;;;;;21.44;25.84;101636.79;104035;1313;62125;-82
2022/02/09 07:53:44;;;;;;;13.10;5.60;;;;;;;21.44;25.98;101638.61;102889;1322;62333;-83
2022/02/09 07:56:25;;;;;;;11.50;5.00;;;;;;;21.44;25.81;101646.83;103101;1319;72885;-82
2022/02/09 07:58:56;;;;;;;9.90;5.10;;;;;;;21.44;25.83;101653.11;103153;1319;75863;-81
2022/02/09 08:01:40;;;;;;;10.20;4.80;;;;;;;21.43;25.78;101647.26;103205;1319;62017;-82
2022/02/09 08:04:15;;;;;;;11.70;4.90;;;;;;;21.43;25.71;101650.99;103122;1322;61982;-83
2022/02/09 08:06:45;;;;;;;9.70;4.90;;;;;;;21.42;25.76;101656.04;103249;1319;73393;-82
2022/02/09 08:09:37;;;;;;;11.00;4.90;;;;;;;21.43;25.73;101664.98;102972;1322;76976;-82
2022/02/09 08:29:06;;;;;;;11.10;5.00;;;;;;;21.39;26.03;101671.84;103930;1313;72755;-81
2022/02/09 08:34:50;;;;;;;12.00;4.70;;;;;;;21.39;26.16;101675.23;103827;1313;62005;-81
2022/02/09 08:37:18;;;;;;;7.80;4.50;;;;;;;21.38;26.08;101677.41;103953;1314;62190;-83
2022/02/09 08:40:05;;;;;;;9.20;4.90;;;;;;;21.39;26.13;101672.55;103970;1313;72864;-82
2022/02/09 08:42:53;;;;;;;9.70;4.90;;;;;;;21.39;26.19;101673.77;104042;1313;75766;-82
2022/02/09 08:45:28;;;;;;;13.20;5.30;;;;;;;21.39;26.23;101672.16;103753;1314;62076;-82
2022/02/09 08:47:57;;;;;;;9.80;5.50;;;;;;;21.39;26.17;101677.54;103770;1313;62161;-84
2022/02/09 08:50:32;;;;;;;10.70;4.70;;;;;;;21.40;26.21;101690.02;103981;1313;72637;-83
2022/02/09 08:53:00;;;;;;;10.10;4.60;;;;;;;21.40;26.29;101684.85;103976;1314;76718;-83
2022/02/09 08:55:34;;;;;;;12.90;5.40;;;;;;;21.40;26.21;101676.59;103977;1314;62099;-81
2022/02/09 08:58:16;;;;;;;8.00;4.70;;;;;;;21.40;26.25;101678.75;104025;1316;62117;-88
2022/02/09 09:01:06;;;;;;;11.50;5.20;;;;;;;21.41;26.12;101680.50;103920;1314;72929;-82
2022/02/09 09:03:44;;;;;;;9.70;4.70;;;;;;;21.41;26.31;101686.21;103764;1313;75644;-82
2022/02/09 09:06:25;;;;;;;10.60;5.00;;;;;;;21.41;26.43;101682.25;103907;1313;62147;-82
2022/02/09 09:09:44;;;;;;;7.50;4.80;;;;;;;21.42;26.31;101688.84;103877;1314;62161;-83
2022/02/09 09:40:48;;;;;;;8.60;4.70;;;;;;;21.45;26.62;101691.38;103131;1322;73644;-83
2022/02/09 10:35:39;;;;;;;8.60;4.50;;;;;;;21.70;27.59;101668.58;102323;1331;73115;-83
2022/02/09 10:38:35;;;;;;;7.70;4.30;;;;;;;21.71;27.64;101674.43;102270;1332;75568;-82
2022/02/09 10:41:32;;;;;;;9.60;4.80;;;;;;;21.72;27.70;101668.85;102434;1329;61989;-86
2022/02/09 10:44:10;;;;;;;9.70;4.60;;;;;;;21.72;27.67;101661.65;102434;1329;62472;-82
2022/02/09 10:46:56;;;;;;;8.60;4.70;;;;;;;21.73;27.67;101661.79;102510;1323;72844;-84
2022/02/09 10:49:30;;;;;;;7.60;4.20;;;;;;;21.74;27.70;101656.70;102562;1323;75913;-82
2022/02/09 10:54:48;;;;;;;5.80;3.90;;;;;;;21.79;27.86;101649.06;102925;1319;62138;-81
2022/02/09 10:57:14;;;;;;;10.70;4.10;;;;;;;21.82;27.97;101643.83;102651;1325;72709;-82
2022/02/09 11:00:07;;;;;;;9.20;4.70;;;;;;;21.85;27.97;101643.00;102589;1326;62176;-89
2022/02/09 11:02:49;;;;;;;7.90;4.10;;;;;;;21.85;28.08;101636.50;102290;1331;62158;-83
2022/02/09 11:05:57;;;;;;;10.90;4.30;;;;;;;21.86;28.29;101635.02;102231;1332;62197;-83
2022/02/09 11:08:23;;;;;;;7.50;4.00;;;;;;;21.86;28.58;101631.77;101537;1337;72716;-82
2022/02/09 11:10:50;;;;;;;6.00;3.70;;;;;;;21.87;28.81;101627.98;101642;1338;63463;-82
2022/02/09 11:13:19;;;;;;;11.20;4.00;;;;;;;21.88;29.11;101628.62;102088;1328;60466;-82
2022/02/09 11:15:54;;;;;;;9.60;4.30;;;;;;;21.89;29.31;101633.59;102564;1328;62165;-88
2022/02/09 11:18:35;;;;;;;6.40;4.00;;;;;;;21.89;29.31;101641.09;102550;1328;73969;-83
2022/02/09 11:21:22;;;;;;;7.80;4.20;;;;;;;21.89;29.51;101635.34;102645;1328;75835;-84
2022/02/09 11:24:05;;;;;;;7.50;4.00;;;;;;;21.89;29.65;101635.34;102628;1328;62017;-84
2022/02/09 11:27:35;;;;;;;8.80;4.20;;;;;;;21.90;29.70;101629.40;102689;1327;61929;-87
2022/02/09 11:30:40;;;;;;;6.80;3.70;;;;;;;21.89;29.87;101623.70;102540;1327;73763;-82
2022/02/09 11:33:30;;;;;;;7.50;4.00;;;;;;;21.90;29.88;101629.56;102336;1331;76936;-85
2022/02/09 11:39:18;;;;;;;5.80;3.50;;;;;;;21.90;29.79;101618.10;102337;1331;62295;-82
2022/02/09 11:42:10;;;;;;;6.10;3.80;;;;;;;21.90;29.83;101617.70;102641;1328;73900;-82
2022/02/09 11:45:24;;;;;;;7.00;3.50;;;;;;;21.91;29.72;101616.96;102540;1322;76463;-85
2022/02/09 11:48:12;;;;;;;5.80;3.40;;;;;;;21.91;29.64;101613.92;103238;1322;61881;-85
2022/02/09 11:51:12;;;;;;;5.50;3.80;;;;;;;21.91;29.62;101616.59;102847;1322;62925;-84
2022/02/09 11:57:52;;;;;;;6.40;3.50;;;;;;;21.91;29.57;101614.63;102993;1322;74475;-82
2022/02/09 12:10:24;;;;;;;5.40;3.30;;;;;;;21.91;29.60;101606.92;101891;1332;75414;-83
2022/02/09 12:13:15;;;;;;;6.60;3.70;;;;;;;21.93;29.59;101608.08;102124;1334;62069;-82
2022/02/09 12:19:08;;;;;;;8.50;3.50;;;;;;;21.92;29.47;101609.69;102246;1328;73875;-82
2022/02/09 12:25:03;;;;;;;8.10;3.50;;;;;;;21.94;29.27;101611.79;102438;1328;62003;-82
2022/02/09 12:27:32;;;;;;;7.10;3.30;;;;;;;21.94;29.11;101618.60;102348;1331;62188;-79
2022/02/09 12:30:07;;;;;;;5.80;3.40;;;;;;;21.94;28.96;101615.70;102212;1332;72946;-82
2022/02/09 12:32:46;;;;;;;5.80;3.30;;;;;;;21.95;29.03;101620.35;102110;1331;76755;-81
2022/02/09 12:35:42;;;;;;;6.00;3.40;;;;;;;21.95;28.98;101619.08;102350;1331;62479;-81
2022/02/09 12:38:29;;;;;;;6.40;3.50;;;;;;;21.95;28.92;101623.19;102207;1331;62518;-84
2022/02/09 12:41:11;;;;;;;5.80;3.00;;;;;;;21.96;28.98;101620.64;102231;1331;72776;-83
2022/02/09 12:43:50;;;;;;;4.90;3.00;;;;;;;21.96;29.04;101615.63;102028;1328;76469;-80
2022/02/09 12:46:22;;;;;;;4.60;3.10;;;;;;;21.96;28.97;101617.95;103147;1320;61866;-84
2022/02/09 12:48:49;;;;;;;5.50;3.10;;;;;;;21.97;29.07;101617.88;103437;1319;62189;-81
2022/02/09 12:51:28;;;;;;;6.20;3.40;;;;;;;21.97;29.15;101619.45;103850;1313;73975;-81
2022/02/09 12:54:00;;;;;;;6.80;3.20;;;;;;;21.98;29.08;101617.62;104087;1311;76586;-83
2022/02/09 12:56:38;;;;;;;6.90;3.10;;;;;;;21.98;28.97;101622.25;104170;1311;61807;-83
2022/02/09 12:59:09;;;;;;;5.10;3.00;;;;;;;21.99;29.16;101625.80;104182;1311;62183;-81
2022/02/09 13:01:53;;;;;;;6.30;2.80;;;;;;;21.99;29.19;101627.23;104141;1311;72879;-81
2022/02/09 13:04:59;;;;;;;7.00;3.50;;;;;;;22.00;29.24;101626.83;104193;1308;75648;-81
2022/02/09 13:07:55;;;;;;;;;;;;;;;21.99;29.06;101630.60;104049;1313;62022;-82
2022/02/09 13:10:36;;;;;;;6.50;3.00;;;;;;;21.98;29.20;101631.45;103801;1319;62022;-83
2022/02/09 13:13:07;;;;;;;6.40;2.80;;;;;;;21.99;29.19;101635.30;103412;1319;74105;-81
2022/02/09 13:19:36;;;;;;;;;;;;;;;;;;;;;
2022/02/09 14:12:36;;;;;;;4.20;2.50;;;;;;;22.04;29.32;101645.01;103186;1319;72997;-86
2022/02/09 14:54:15;;;;;;;4.00;2.70;;;;;;;22.09;29.28;101667.84;103421;1319;63769;-87
2022/02/09 15:00:06;;;;;;;8.60;2.60;;;;;;;22.09;29.42;101673.77;103731;1319;72802;-89
2022/02/09 15:02:54;;;;;;;5.20;2.50;;;;;;;22.09;29.43;101680.55;103404;1319;76752;-86
2022/02/09 15:05:58;;;;;;;5.30;2.30;;;;;;;22.09;29.41;101683.40;103271;1319;61991;-82
2022/02/09 15:08:48;;;;;;;4.40;2.40;;;;;;;22.09;29.39;101692.19;103051;1323;62350;-85
2022/02/09 15:11:52;;;;;;;4.20;2.50;;;;;;;22.10;29.37;101697.89;103021;1323;73733;-86
2022/02/09 15:24:27;;;;;;;5.00;2.70;;;;;;;22.10;29.38;101703.97;103097;1323;73828;-85
2022/02/09 15:27:30;;;;;;;4.00;2.40;;;;;;;22.11;29.42;101707.86;103559;1319;75549;-86
2022/02/09 15:30:27;;;;;;;5.30;2.70;;;;;;;22.11;29.45;101705.52;103820;1319;62040;-82
2022/02/09 15:33:32;;;;;;;5.00;2.40;;;;;;;22.11;29.49;101700.86;104313;1313;62095;-81
2022/02/09 15:36:35;;;;;;;3.90;2.30;;;;;;;22.12;29.50;101700.45;104346;1313;72881;-84
2022/02/09 15:39:22;;;;;;;4.10;2.50;;;;;;;22.12;29.49;101699.22;104318;1313;76718;-84
2022/02/09 16:19:20;;;;;;;3.60;2.20;;;;;;;22.11;29.39;101776.17;102506;1332;75449;-86
2022/02/09 16:23:58;;;;;;;4.00;2.50;;;;;;;22.10;29.46;101785.33;102690;1329;62123;-84
2022/02/09 16:37:19;;;;;;;6.10;2.70;;;;;;;22.10;29.38;101798.98;103808;1319;61990;-83
2022/02/09 16:46:25;;;;;;;4.30;2.40;;;;;;;22.09;29.68;101814.82;103273;1321;63127;-83
2022/02/09 16:49:55;;;;;;;4.60;2.70;;;;;;;22.09;29.55;101811.94;103293;1322;62033;-86
2022/02/09 16:56:17;;;;;;;4.30;2.50;;;;;;;22.09;29.55;101814.27;101952;1337;76942;-83
2022/02/09 17:11:16;;;;;;;4.20;2.30;;;;;;;22.09;29.72;101820.17;101852;1337;79031;-82
2022/02/09 17:21:09;;;;;;;3.90;2.60;;;;;;;22.10;29.61;101831.07;101741;1342;75786;-86
2022/02/09 17:24:13;;;;;;;5.00;2.60;;;;;;;22.11;29.61;101828.34;101944;1337;62039;-82
2022/02/09 17:26:59;;;;;;;4.20;2.60;;;;;;;22.10;29.53;101833.77;101717;1345;62173;-86
2022/02/09 17:36:36;;;;;;;;;;;;;;;;;;;;;
2022/02/09 17:58:50;;;;;;;4.50;2.70;;;;;;;22.10;29.70;101876.44;102182;1334;76706;-88
2022/02/09 18:01:28;;;;;;;5.80;2.80;;;;;;;22.10;29.64;101876.27;102074;1334;62168;-91
2022/02/09 18:04:33;;;;;;;5.00;2.80;;;;;;;22.10;29.72;101878.42;102779;1325;62095;-84
2022/02/09 18:07:13;;;;;;;5.00;3.10;;;;;;;22.10;29.70;101885.92;103393;1314;71781;-83
2022/02/09 18:11:19;;;;;;;5.60;3.00;;;;;;;22.10;29.81;101886.66;104091;1313;75734;-83
2022/02/09 18:32:25;;;;;;;5.80;3.40;;;;;;;22.11;29.90;101899.88;103607;1313;71540;-83
2022/02/09 18:44:45;;;;;;;5.00;3.40;;;;;;;22.11;29.91;101905.58;104192;1314;73844;-80
2022/02/09 19:19:34;;;;;;;4.80;3.10;;;;;;;22.11;30.01;101946.33;103728;1317;62007;-80
2022/02/09 19:46:33;;;;;;;6.70;4.20;;;;;;;22.10;29.99;101956.22;103809;1316;61931;-82
2022/02/09 19:51:22;;;;;;;7.40;4.40;;;;;;;22.10;30.11;101958.34;103681;1318;77008;-81
2022/02/09 19:54:10;;;;;;;7.90;4.40;;;;;;;22.10;30.14;101964.80;103664;1318;62321;-85
2022/02/09 19:57:09;;;;;;;7.80;4.20;;;;;;;22.11;29.96;101968.17;103557;1318;62067;-83
2022/02/09 20:00:05;;;;;;;7.50;4.50;;;;;;;22.11;29.96;101965.30;103666;1318;73836;-86
2022/02/09 20:02:49;;;;;;;7.10;4.10;;;;;;;22.11;30.00;101969.95;103670;1317;76731;-85
2022/02/09 20:05:34;;;;;;;8.00;4.40;;;;;;;22.11;30.11;101969.60;103831;1316;62094;-87
2022/02/09 20:08:37;;;;;;;7.50;4.50;;;;;;;22.12;30.04;101969.02;103176;1323;62199;-84
2022/02/09 20:11:20;;;;;;;7.30;4.40;;;;;;;22.12;29.97;101970.98;103123;1323;72910;-83
2022/02/09 20:14:17;;;;;;;7.50;4.60;;;;;;;22.12;29.94;101971.52;103280;1322;75641;-84
2022/02/09 20:16:50;;;;;;;9.40;4.70;;;;;;;22.12;30.00;101969.71;103084;1323;61936;-83
2022/02/09 20:19:59;;;;;;;7.40;4.50;;;;;;;22.12;29.92;101972.77;103187;1322;62845;-86
2022/02/09 20:22:45;;;;;;;7.10;4.60;;;;;;;22.12;29.91;101968.14;103041;1322;74112;-84
2022/02/09 20:25:23;;;;;;;9.00;5.10;;;;;;;22.12;29.96;101972.06;103078;1323;76478;-87
2022/02/09 20:28:27;;;;;;;6.90;4.70;;;;;;;22.12;30.00;101971.71;103283;1319;62043;-86
2022/02/09 20:31:18;;;;;;;7.30;4.60;;;;;;;22.12;30.05;101974.92;103359;1320;62238;-84
2022/02/09 20:34:10;;;;;;;7.70;4.70;;;;;;;22.13;30.03;101980.10;103431;1319;73829;-84
2022/02/09 20:36:58;;;;;;;7.60;4.80;;;;;;;22.12;29.88;101979.41;103431;1319;75619;-83
2022/02/09 20:39:54;;;;;;;8.30;4.50;;;;;;;22.12;30.00;101981.20;103438;1319;62238;-79
2022/02/09 20:42:39;;;;;;;7.40;4.70;;;;;;;22.13;29.92;101977.02;103488;1319;62482;-83
2022/02/09 20:45:25;;;;;;;8.10;4.40;;;;;;;22.13;30.02;101973.26;103488;1314;74148;-84
2022/02/09 20:48:24;;;;;;;8.60;5.00;;;;;;;22.12;29.96;101972.78;104194;1314;75889;-83
2022/02/09 20:51:10;;;;;;;7.10;5.00;;;;;;;22.13;30.04;101975.26;104324;1314;61992;-86
2022/02/09 20:53:58;;;;;;;8.40;4.90;;;;;;;22.12;30.01;101981.56;104200;1314;61897;-81
2022/02/09 20:56:36;;;;;;;7.60;4.50;;;;;;;22.13;30.02;101986.19;104193;1308;72817;-84
2022/02/09 20:59:47;;;;;;;9.20;5.20;;;;;;;22.13;30.13;101987.96;104539;1308;74346;-85
2022/02/09 21:02:50;;;;;;;7.70;4.70;;;;;;;22.13;30.06;101988.52;104563;1308;61541;-84
2022/02/09 21:09:24;;;;;;;8.00;5.10;;;;;;;22.12;30.08;101989.98;104594;1307;72721;-83
2022/02/09 21:15:25;;;;;;;11.00;5.80;;;;;;;22.13;30.12;101988.19;104550;1307;62110;-85
2022/02/09 21:19:03;;;;;;;9.10;5.60;;;;;;;22.12;30.05;101993.23;104623;1305;62239;-84
2022/02/09 21:28:57;;;;;;;9.30;6.10;;;;;;;22.12;29.99;101988.59;104314;1311;62125;-82
2022/02/09 22:28:16;;;;;;;15.50;8.10;;;;;;;22.13;30.08;102021.34;102046;1335;77188;-87
2022/02/09 22:31:21;;;;;;;10.60;7.50;;;;;;;22.13;30.01;102015.59;102095;1335;62306;-83
2022/02/09 22:56:04;;;;;;;12.40;7.80;;;;;;;22.12;30.10;102023.51;102936;1325;62740;-85
2022/02/09 22:58:57;;;;;;;15.90;8.40;;;;;;;22.12;30.02;102023.69;102832;1325;62115;-83
2022/02/09 23:01:48;;;;;;;12.50;8.00;;;;;;;22.13;30.12;102017.91;102849;1323;72819;-83
2022/02/09 23:04:52;;;;;;;;;;;;;;;;;;;;;
2022/02/09 23:10:48;;;;;;;13.40;8.70;;;;;;;22.13;29.98;102021.48;102814;1323;61982;-85
2022/02/09 23:20:14;;;;;;;12.10;8.90;;;;;;;22.14;30.05;102025.58;102747;1326;62347;-85
2022/02/09 23:23:13;;;;;;;13.70;9.70;;;;;;;22.14;29.96;102023.77;102763;1326;62149;-81
